createdAt,value
2019-05-20T00:01:34.069Z,27.87
2019-05-20T00:04:11.352Z,38.37
2019-05-20T00:06:48.498Z,31.00
2019-05-20T00:09:25.678Z,27.73
2019-05-20T00:12:03.094Z,36.37
2019-05-20T00:14:40.138Z,30.70
2019-05-20T00:17:17.292Z,33.67
2019-05-20T00:19:56.173Z,27.63
2019-05-20T00:22:33.672Z,26.67
2019-05-20T00:25:10.759Z,21.60
2019-05-20T00:27:47.909Z,23.57
2019-05-20T00:30:25.220Z,31.47
2019-05-20T00:33:05.923Z,28.77
2019-05-20T00:35:53.398Z,30.90
2019-05-20T00:38:32.005Z,32.37
2019-05-20T00:41:09.015Z,33.73
2019-05-20T00:43:46.175Z,32.23
2019-05-20T00:46:23.270Z,30.07
2019-05-20T00:49:00.593Z,25.03
2019-05-20T00:51:37.734Z,22.90
2019-05-20T00:54:17.300Z,24.57
2019-05-20T00:56:54.649Z,25.10
2019-05-20T00:59:31.897Z,20.93
2019-05-20T01:02:09.019Z,20.47
2019-05-20T01:04:46.185Z,23.03
2019-05-20T01:07:23.266Z,24.67
2019-05-20T01:10:00.409Z,22.40
2019-05-20T01:12:37.445Z,23.50
2019-05-20T01:15:15.250Z,23.97
2019-05-20T01:17:52.477Z,27.53
2019-05-20T01:20:29.661Z,25.23
2019-05-20T01:23:06.776Z,25.13
2019-05-20T01:25:45.534Z,23.77
2019-05-20T01:28:22.688Z,24.10
2019-05-20T01:30:59.820Z,23.63
2019-05-20T01:33:37.034Z,23.00
2019-05-20T01:36:14.178Z,22.80
2019-05-20T01:38:51.319Z,27.03
2019-05-20T01:41:28.445Z,26.00
2019-05-20T01:44:05.654Z,29.83
2019-05-20T01:46:42.697Z,26.03
2019-05-20T01:49:19.798Z,23.67
2019-05-20T01:51:56.944Z,28.23
2019-05-20T01:54:34.071Z,29.87
2019-05-20T01:57:11.199Z,27.53
2019-05-20T01:59:48.335Z,25.90
2019-05-20T02:02:25.498Z,29.27
2019-05-20T02:05:02.694Z,28.37
2019-05-20T02:07:39.732Z,28.07
2019-05-20T02:10:17.522Z,26.43
2019-05-20T02:12:54.743Z,29.07
2019-05-20T02:15:36.442Z,27.97
2019-05-20T02:18:13.542Z,27.83
2019-05-20T02:20:50.689Z,27.50
2019-05-20T02:23:27.853Z,27.50
2019-05-20T02:26:04.964Z,26.00
2019-05-20T02:28:42.075Z,22.30
2019-05-20T02:31:19.175Z,23.40
2019-05-20T02:33:56.326Z,21.63
2019-05-20T02:36:33.399Z,18.97
2019-05-20T02:39:10.661Z,21.43
2019-05-20T02:41:48.469Z,23.47
2019-05-20T02:44:25.620Z,20.13
2019-05-20T02:47:02.713Z,20.03
2019-05-20T02:49:39.859Z,22.20
2019-05-20T02:52:16.989Z,19.27
2019-05-20T02:54:54.140Z,20.63
2019-05-20T02:57:31.261Z,19.97
2019-05-20T03:00:08.416Z,22.20
2019-05-20T03:02:45.556Z,26.07
2019-05-20T03:05:22.697Z,19.83
2019-05-20T03:07:59.814Z,26.17
2019-05-20T03:10:36.946Z,24.07
2019-05-20T03:13:14.059Z,29.47
2019-05-20T03:15:51.218Z,26.73
2019-05-20T03:18:31.034Z,23.60
2019-05-20T03:21:08.194Z,24.43
2019-05-20T03:23:45.281Z,20.73
2019-05-20T03:26:22.439Z,26.23
2019-05-20T03:28:59.534Z,30.73
2019-05-20T03:31:36.664Z,33.80
2019-05-20T03:34:42.078Z,31.40
2019-05-20T03:36:52.531Z,35.70
2019-05-20T03:39:31.136Z,41.67
2019-05-20T03:42:09.936Z,38.27
2019-05-20T03:44:47.039Z,32.30
2019-05-20T03:47:24.262Z,29.80
2019-05-20T03:50:01.366Z,30.83
2019-05-20T03:52:38.549Z,27.33
2019-05-20T03:55:15.746Z,27.67
2019-05-20T03:57:52.873Z,40.57
2019-05-20T04:00:42.308Z,37.57
2019-05-20T04:03:19.451Z,35.20
2019-05-20T04:05:56.697Z,34.63
2019-05-20T04:08:33.935Z,32.93
2019-05-20T04:11:11.088Z,28.10
2019-05-20T04:13:48.323Z,29.87
2019-05-20T04:16:25.500Z,28.17
2019-05-20T04:19:02.726Z,25.50
2019-05-20T04:21:40.049Z,24.07
2019-05-20T04:24:17.226Z,25.80
2019-05-20T04:27:00.463Z,26.83
2019-05-20T04:29:37.870Z,30.07
2019-05-20T04:32:14.972Z,28.53
2019-05-20T04:34:52.296Z,28.73
2019-05-20T04:37:29.594Z,26.17
2019-05-20T04:40:06.779Z,24.23
2019-05-20T04:42:43.865Z,25.30
2019-05-20T04:45:21.069Z,26.60
2019-05-20T04:47:59.228Z,23.30
2019-05-20T04:50:36.456Z,30.83
2019-05-20T04:53:13.627Z,30.17
2019-05-20T04:55:50.792Z,25.90
2019-05-20T04:58:28.366Z,30.10
2019-05-20T05:01:05.983Z,27.50
2019-05-20T05:03:43.176Z,26.93
2019-05-20T05:06:21.964Z,26.90
2019-05-20T05:08:59.079Z,25.50
2019-05-20T05:11:36.290Z,29.03
2019-05-20T05:14:13.496Z,27.63
2019-05-20T05:16:50.658Z,25.20
2019-05-20T05:19:27.746Z,28.13
2019-05-20T05:22:04.937Z,27.17
2019-05-20T05:24:42.046Z,29.87
2019-05-20T05:27:19.202Z,27.00
2019-05-20T05:29:56.426Z,26.07
2019-05-20T05:32:43.424Z,23.77
2019-05-20T05:35:23.245Z,24.77
2019-05-20T05:38:30.127Z,25.00
2019-05-20T05:41:02.551Z,26.47
2019-05-20T05:43:39.678Z,21.23
2019-05-20T05:46:17.362Z,25.07
2019-05-20T05:48:54.535Z,23.30
2019-05-20T05:51:32.333Z,21.90
2019-05-20T05:54:09.542Z,28.53
2019-05-20T05:56:46.720Z,24.63
2019-05-20T05:59:23.917Z,27.80
2019-05-20T06:02:01.154Z,30.40
2019-05-20T06:04:50.199Z,30.33
2019-05-20T06:07:27.345Z,27.83
2019-05-20T06:10:06.268Z,29.20
2019-05-20T06:12:43.601Z,27.67
2019-05-20T06:15:20.717Z,31.87
2019-05-20T06:17:57.850Z,31.77
2019-05-20T06:20:35.140Z,30.60
2019-05-20T06:23:12.272Z,31.87
2019-05-20T06:25:49.567Z,30.57
2019-05-20T06:28:26.878Z,27.97
2019-05-20T06:31:03.998Z,28.43
2019-05-20T06:33:42.802Z,30.67
2019-05-20T06:36:26.928Z,30.33
2019-05-20T06:39:06.389Z,27.13
2019-05-20T06:41:43.546Z,30.03
2019-05-20T06:44:20.665Z,28.17
2019-05-20T06:46:57.801Z,29.03
2019-05-20T06:49:35.489Z,29.73
2019-05-20T06:52:12.709Z,27.97
2019-05-20T06:54:49.853Z,30.20
2019-05-20T06:57:26.978Z,32.93
2019-05-20T07:00:07.302Z,24.73
2019-05-20T07:02:44.634Z,27.73
2019-05-20T07:05:23.678Z,32.43
2019-05-20T07:08:01.372Z,29.10
2019-05-20T07:10:38.839Z,28.67
2019-05-20T07:13:16.445Z,31.30
2019-05-20T07:15:55.035Z,28.53
2019-05-20T07:18:32.325Z,28.73
2019-05-20T07:21:09.715Z,30.10
2019-05-20T07:23:46.897Z,26.10
2019-05-20T07:26:24.013Z,28.53
2019-05-20T07:29:01.144Z,28.93
2019-05-20T07:31:38.332Z,26.03
2019-05-20T07:34:16.627Z,28.62
2019-05-20T07:37:03.155Z,28.57
2019-05-20T07:39:32.677Z,28.27
2019-05-20T07:42:09.819Z,29.63
2019-05-20T07:44:46.968Z,28.20
2019-05-20T07:47:25.258Z,30.07
2019-05-20T07:50:02.862Z,28.57
2019-05-20T07:52:40.494Z,29.52
2019-05-20T07:55:18.234Z,29.00
2019-05-20T07:57:55.906Z,26.50
2019-05-20T08:00:33.339Z,25.00
2019-05-20T08:03:10.488Z,25.97
2019-05-20T08:05:48.236Z,28.55
2019-05-20T08:08:25.440Z,25.37
2019-05-20T08:11:03.194Z,33.90
2019-05-20T08:13:40.313Z,32.10
2019-05-20T08:16:17.421Z,27.90
2019-05-20T08:18:54.571Z,32.48
2019-05-20T08:21:32.315Z,31.62
2019-05-20T08:24:09.445Z,25.72
2019-05-20T08:26:46.648Z,28.75
2019-05-20T08:29:23.731Z,29.15
2019-05-20T08:32:01.605Z,28.80
2019-05-20T08:34:40.245Z,30.92
2019-05-20T08:37:17.694Z,33.00
2019-05-20T08:39:54.802Z,33.38
2019-05-20T08:42:31.915Z,40.70
2019-05-20T08:45:09.618Z,36.75
2019-05-20T08:47:47.289Z,34.70
2019-05-20T08:50:24.395Z,33.75
2019-05-20T08:53:01.442Z,33.63
2019-05-20T08:55:39.284Z,39.05
2019-05-20T08:58:17.005Z,38.35
2019-05-20T09:00:54.723Z,33.33
2019-05-20T09:03:31.866Z,36.83
2019-05-20T09:06:09.008Z,32.88
2019-05-20T09:08:46.234Z,33.05
2019-05-20T09:11:23.980Z,30.85
2019-05-20T09:14:01.318Z,29.82
2019-05-20T09:19:15.619Z,31.40
2019-05-20T09:21:53.489Z,33.98
2019-05-20T09:24:30.701Z,32.70
2019-05-20T09:27:08.018Z,36.93
2019-05-20T09:29:45.790Z,31.42
2019-05-20T09:32:25.080Z,31.60
2019-05-20T09:35:02.370Z,32.38
2019-05-20T09:37:40.721Z,36.53
2019-05-20T09:40:35.715Z,32.08
2019-05-20T09:43:13.069Z,35.43
2019-05-20T09:46:05.768Z,30.88
2019-05-20T09:48:29.278Z,34.85
2019-05-20T09:51:06.494Z,30.05
2019-05-20T09:53:43.689Z,31.85
2019-05-20T09:56:21.402Z,32.55
2019-05-20T09:58:58.554Z,32.55
2019-05-20T10:01:39.598Z,31.27
2019-05-20T10:04:14.339Z,27.32
2019-05-20T10:06:51.564Z,31.60
2019-05-20T10:09:29.387Z,34.75
2019-05-20T10:12:06.458Z,33.30
2019-05-20T10:14:44.078Z,36.10
2019-05-20T10:17:21.835Z,37.85
2019-05-20T10:19:59.434Z,37.08
2019-05-20T10:22:37.221Z,36.98
2019-05-20T10:25:15.562Z,38.88
2019-05-20T10:27:57.185Z,38.50
2019-05-20T10:30:32.638Z,38.45
2019-05-20T10:33:10.903Z,42.93
2019-05-20T10:35:48.824Z,38.80
2019-05-20T10:38:26.703Z,44.27
2019-05-20T10:41:04.491Z,51.15
2019-05-20T10:43:42.242Z,49.23
2019-05-20T10:46:28.391Z,43.63
2019-05-20T10:49:06.152Z,44.83
2019-05-20T10:51:44.147Z,42.65
2019-05-20T10:54:21.796Z,40.45
2019-05-20T10:56:59.952Z,38.85
2019-05-20T10:59:37.866Z,39.38
2019-05-20T11:02:15.787Z,31.23
2019-05-20T11:04:53.568Z,33.78
2019-05-20T11:07:31.807Z,31.05
2019-05-20T11:10:11.963Z,27.73
2019-05-20T11:12:49.730Z,29.55
2019-05-20T11:15:27.441Z,30.15
2019-05-20T11:18:06.777Z,36.05
2019-05-20T11:20:44.463Z,31.57
2019-05-20T11:23:22.278Z,27.70
2019-05-20T11:26:00.035Z,24.52
2019-05-20T11:28:38.460Z,19.67
2019-05-20T11:31:20.857Z,20.12
2019-05-20T11:33:59.216Z,11.40
2019-05-20T11:36:37.183Z,11.57
2019-05-20T11:39:31.558Z,12.43
2019-05-20T11:41:55.821Z,15.78
2019-05-20T11:44:33.469Z,12.82
2019-05-20T11:47:12.817Z,10.18
2019-05-20T11:49:50.547Z,9.43
2019-05-20T11:52:28.306Z,9.33
2019-05-20T11:55:06.692Z,7.37
2019-05-20T11:57:44.402Z,6.05
2019-05-20T12:00:22.127Z,3.98
2019-05-20T12:03:02.087Z,6.30
2019-05-20T12:05:43.978Z,5.80
2019-05-20T12:08:21.678Z,4.20
2019-05-20T12:10:59.338Z,2.90
2019-05-20T12:13:37.098Z,3.42
2019-05-20T12:16:14.735Z,5.35
2019-05-20T12:18:52.538Z,3.55
2019-05-20T12:21:30.367Z,4.97
2019-05-20T12:24:08.105Z,3.10
2019-05-20T12:26:46.390Z,5.95
2019-05-20T12:29:24.030Z,4.80
2019-05-20T12:32:03.571Z,4.50
2019-05-20T12:34:40.943Z,2.08
2019-05-20T12:37:18.641Z,4.17
2019-05-20T12:40:06.343Z,3.75
2019-05-20T12:42:35.597Z,2.35
2019-05-20T12:45:14.276Z,9.38
2019-05-20T12:47:51.818Z,3.30
2019-05-20T12:50:29.546Z,4.25
2019-05-20T12:53:07.250Z,4.60
2019-05-20T12:55:44.962Z,4.05
2019-05-20T12:58:22.644Z,1.70
2019-05-20T13:01:00.338Z,1.90
2019-05-20T13:03:38.044Z,4.05
2019-05-20T13:06:15.747Z,2.42
2019-05-20T13:09:12.558Z,4.90
2019-05-20T13:11:50.188Z,3.22
2019-05-20T13:14:29.075Z,7.53
2019-05-20T13:17:06.724Z,4.80
2019-05-20T13:19:44.437Z,6.80
2019-05-20T13:22:22.102Z,6.40
2019-05-20T13:24:59.849Z,4.95
2019-05-20T13:27:42.007Z,4.72
2019-05-20T13:30:20.846Z,2.80
2019-05-20T13:32:58.638Z,2.27
2019-05-20T13:35:36.415Z,2.35
2019-05-20T13:38:14.157Z,5.47
2019-05-20T13:40:53.567Z,4.58
2019-05-20T13:43:34.276Z,5.40
2019-05-20T13:46:16.020Z,6.42
2019-05-20T13:48:53.816Z,3.60
2019-05-20T13:51:31.585Z,4.20
2019-05-20T13:54:09.856Z,2.27
2019-05-20T13:56:47.578Z,4.37
2019-05-20T13:59:29.203Z,7.30
2019-05-20T14:02:08.120Z,2.30
2019-05-20T14:04:49.186Z,2.15
2019-05-20T14:07:28.059Z,5.20
2019-05-20T14:10:12.913Z,3.25
2019-05-20T14:12:50.887Z,2.30
2019-05-20T14:15:28.744Z,1.75
2019-05-20T14:18:06.472Z,5.25
2019-05-20T14:20:45.346Z,3.85
2019-05-20T14:23:23.095Z,3.12
2019-05-20T14:26:00.989Z,2.20
2019-05-20T14:28:38.868Z,2.52
2019-05-20T14:31:16.836Z,2.52
2019-05-20T14:33:54.788Z,2.83
2019-05-20T14:36:40.426Z,2.47
2019-05-20T14:39:18.642Z,6.97
2019-05-20T14:41:56.559Z,2.77
2019-05-20T14:44:34.424Z,2.00
2019-05-20T14:47:12.408Z,1.98
2019-05-20T14:49:51.902Z,4.75
2019-05-20T14:52:29.564Z,1.60
2019-05-20T14:55:07.858Z,2.47
2019-05-20T14:57:45.511Z,2.65
2019-05-20T15:00:24.607Z,2.58
2019-05-20T15:03:02.439Z,3.80
2019-05-20T15:05:40.403Z,1.90
2019-05-20T15:08:18.299Z,1.95
2019-05-20T15:10:56.022Z,2.20
2019-05-20T15:13:33.783Z,1.75
2019-05-20T15:16:11.463Z,6.75
2019-05-20T15:18:49.146Z,1.90
2019-05-20T15:21:29.566Z,4.35
2019-05-20T15:24:08.311Z,6.00
2019-05-20T15:26:49.140Z,2.60
2019-05-20T15:29:28.654Z,2.95
2019-05-20T15:32:08.303Z,5.87
2019-05-20T15:34:49.160Z,2.15
2019-05-20T15:37:27.561Z,3.50
2019-05-20T15:40:05.730Z,5.20
2019-05-20T15:42:43.446Z,3.60
2019-05-20T15:45:21.348Z,1.85
2019-05-20T15:48:05.091Z,2.83
2019-05-20T15:50:44.203Z,3.27
2019-05-20T15:53:22.157Z,3.05
2019-05-20T15:56:00.053Z,1.70
2019-05-20T15:58:37.864Z,2.22
2019-05-20T16:01:16.181Z,1.98
2019-05-20T16:03:53.949Z,2.95
2019-05-20T16:06:31.613Z,2.05
2019-05-20T16:09:09.633Z,2.20
2019-05-20T16:11:50.785Z,3.20
2019-05-20T16:14:29.095Z,2.00
2019-05-20T16:17:08.816Z,2.10
2019-05-20T16:19:46.472Z,3.37
2019-05-20T16:22:24.118Z,2.08
2019-05-20T16:25:03.647Z,1.90
2019-05-20T16:27:44.428Z,3.67
2019-05-20T16:30:22.326Z,3.30
2019-05-20T16:33:00.132Z,2.00
2019-05-20T16:35:38.078Z,2.58
2019-05-20T16:38:15.971Z,1.70
2019-05-20T16:40:54.937Z,2.65
2019-05-20T16:43:32.645Z,2.62
2019-05-20T16:46:11.493Z,3.77
2019-05-20T16:48:49.150Z,3.35
2019-05-20T16:51:26.832Z,4.12
2019-05-20T16:54:04.629Z,5.03
2019-05-20T16:56:42.295Z,3.55
2019-05-20T16:59:19.998Z,3.22
2019-05-20T17:01:57.618Z,2.50
2019-05-20T17:04:35.343Z,4.85
2019-05-20T17:07:13.142Z,3.62
2019-05-20T17:09:50.854Z,2.42
2019-05-20T17:12:28.617Z,3.25
2019-05-20T17:15:06.792Z,2.47
2019-05-20T17:17:44.525Z,2.85
2019-05-20T17:20:22.403Z,4.53
2019-05-20T17:23:00.085Z,3.27
2019-05-20T17:25:40.957Z,5.20
2019-05-20T17:28:19.499Z,4.00
2019-05-20T17:30:57.570Z,3.35
2019-05-20T17:33:35.307Z,3.58
2019-05-20T17:36:13.108Z,3.95
2019-05-20T17:38:51.072Z,5.87
2019-05-20T17:41:28.731Z,3.62
2019-05-20T17:44:06.502Z,3.87
2019-05-20T17:46:47.407Z,6.22
2019-05-20T17:49:25.273Z,4.08
2019-05-20T17:52:03.530Z,4.42
2019-05-20T17:54:41.282Z,4.20
2019-05-20T17:57:18.955Z,5.30
2019-05-20T17:59:56.695Z,6.55
2019-05-20T18:02:34.357Z,5.97
2019-05-20T18:05:14.791Z,5.37
2019-05-20T18:07:54.383Z,5.80
2019-05-20T18:10:32.102Z,3.45
2019-05-20T18:13:09.762Z,5.33
2019-05-20T18:15:47.528Z,4.03
2019-05-20T18:18:25.222Z,3.42
2019-05-20T18:21:02.951Z,3.92
2019-05-20T18:23:44.982Z,4.78
2019-05-20T18:26:22.689Z,3.72
2019-05-20T18:29:00.258Z,5.85
2019-05-20T18:31:37.993Z,4.20
2019-05-20T18:34:15.644Z,3.85
2019-05-20T18:36:53.697Z,4.45
2019-05-20T18:39:31.420Z,4.35
2019-05-20T18:42:09.108Z,4.67
2019-05-20T18:44:46.871Z,3.47
2019-05-20T18:47:24.980Z,5.47
2019-05-20T18:50:02.245Z,6.20
2019-05-20T18:52:39.923Z,5.70
2019-05-20T18:55:21.215Z,7.60
2019-05-20T18:57:58.903Z,5.00
2019-05-20T19:00:36.588Z,7.20
2019-05-20T19:03:13.819Z,6.42
2019-05-20T19:05:51.456Z,7.22
2019-05-20T19:08:29.350Z,4.47
2019-05-20T19:11:07.273Z,7.17
2019-05-20T19:13:45.252Z,6.17
2019-05-20T19:16:32.195Z,8.10
2019-05-20T19:19:09.349Z,6.28
2019-05-20T19:21:47.742Z,6.92
2019-05-20T19:24:27.811Z,7.03
2019-05-20T19:27:05.902Z,6.60
2019-05-20T19:29:44.730Z,8.85
2019-05-20T19:32:22.652Z,6.75
2019-05-20T19:35:09.659Z,7.45
2019-05-20T19:37:51.457Z,8.25
2019-05-20T19:40:29.607Z,6.28
2019-05-20T19:43:09.110Z,5.03
2019-05-20T19:45:51.687Z,12.43
2019-05-20T19:48:31.808Z,9.15
2019-05-20T19:51:09.107Z,6.47
2019-05-20T19:53:52.144Z,6.63
2019-05-20T19:56:29.283Z,5.83
2019-05-20T19:59:06.495Z,6.93
2019-05-20T20:01:43.928Z,8.13
2019-05-20T20:04:21.207Z,8.93
2019-05-20T20:06:58.524Z,9.00
2019-05-20T20:09:39.043Z,9.17
2019-05-20T20:12:16.328Z,7.00
2019-05-20T20:14:53.545Z,8.40
2019-05-20T20:17:30.715Z,6.60
2019-05-20T20:20:08.063Z,6.73
2019-05-20T20:22:45.494Z,6.37
2019-05-20T20:25:22.620Z,8.23
2019-05-20T20:27:59.767Z,7.37
2019-05-20T20:30:37.124Z,6.93
2019-05-20T20:33:14.330Z,11.33
2019-05-20T20:35:51.581Z,10.03
2019-05-20T20:38:28.907Z,10.03
2019-05-20T20:41:09.955Z,5.30
2019-05-20T20:43:47.198Z,7.63
2019-05-20T20:46:24.466Z,5.30
2019-05-20T20:49:01.726Z,6.37
2019-05-20T20:51:38.878Z,6.50
2019-05-20T20:54:16.077Z,6.67
2019-05-20T20:56:53.190Z,8.00
2019-05-20T20:59:30.351Z,6.10
2019-05-20T21:02:07.685Z,11.37
2019-05-20T21:04:45.194Z,7.97
2019-05-20T21:07:22.456Z,6.13
2019-05-20T21:09:59.730Z,7.70
2019-05-20T21:12:36.855Z,8.47
2019-05-20T21:15:14.038Z,8.17
2019-05-20T21:17:51.763Z,7.73
2019-05-20T21:20:29.288Z,6.63
2019-05-20T21:23:06.442Z,8.30
2019-05-20T21:25:43.562Z,7.37
2019-05-20T21:28:20.740Z,6.13
2019-05-20T21:30:57.973Z,6.57
2019-05-20T21:33:35.137Z,7.60
2019-05-20T21:36:12.244Z,7.73
2019-05-20T21:38:49.365Z,8.90
2019-05-20T21:41:26.575Z,7.90
2019-05-20T21:44:03.926Z,7.77
2019-05-20T21:46:41.018Z,10.83
2019-05-20T21:49:18.159Z,9.07
2019-05-20T21:51:55.466Z,11.27
2019-05-20T21:54:32.580Z,10.23
2019-05-20T21:57:09.698Z,9.93
2019-05-20T21:59:46.810Z,10.73
2019-05-20T22:02:26.585Z,11.43
2019-05-20T22:05:02.677Z,10.23
2019-05-20T22:07:39.857Z,10.27
2019-05-20T22:10:16.948Z,10.57
2019-05-20T22:12:54.095Z,9.63
2019-05-20T22:15:31.253Z,10.30
2019-05-20T22:18:08.374Z,10.20
2019-05-20T22:20:45.556Z,9.50
2019-05-20T22:23:24.318Z,10.00
2019-05-20T22:26:07.154Z,10.77
2019-05-20T22:28:44.417Z,10.27
2019-05-20T22:31:21.632Z,7.50
2019-05-20T22:33:58.764Z,9.00
2019-05-20T22:36:35.878Z,8.87
2019-05-20T22:39:13.069Z,12.07
2019-05-20T22:41:50.392Z,8.57
2019-05-20T22:44:27.630Z,9.83
2019-05-20T22:47:04.750Z,9.20
2019-05-20T22:49:41.890Z,8.73
2019-05-20T22:52:18.994Z,10.70
2019-05-20T22:54:56.126Z,10.40
2019-05-20T22:57:33.210Z,9.97
2019-05-20T23:00:10.730Z,9.30
2019-05-20T23:02:47.809Z,10.57
2019-05-20T23:05:24.985Z,11.00
2019-05-20T23:08:02.139Z,9.30
2019-05-20T23:10:39.283Z,9.03
2019-05-20T23:13:16.345Z,10.20
2019-05-20T23:15:55.681Z,9.93
2019-05-20T23:18:32.208Z,11.20
2019-05-20T23:21:12.415Z,9.47
2019-05-20T23:23:49.607Z,11.57
2019-05-20T23:26:26.758Z,11.00
2019-05-20T23:29:03.759Z,12.70
2019-05-20T23:31:40.902Z,12.30
2019-05-20T23:34:17.982Z,11.30
2019-05-20T23:36:55.126Z,18.60
2019-05-20T23:39:32.225Z,14.93
2019-05-20T23:42:09.750Z,15.47
2019-05-20T23:44:46.790Z,14.90
2019-05-20T23:47:23.959Z,17.73
2019-05-20T23:50:01.031Z,13.80
2019-05-20T23:52:38.186Z,13.17
2019-05-20T23:55:15.287Z,13.93
2019-05-20T23:57:52.469Z,12.67
